sensor_id;sensor_type;location;lat;lon;timestamp;pressure;altitude;pressure_sealevel;temperature;humidity
14293;BME280;62290;59.420;17.842;2023-07-28T00:02:02;99914.53;;;25.63;40.11
14293;BME280;62290;59.420;17.842;2023-07-28T00:04:30;99905.59;;;25.63;39.76
14293;BME280;62290;59.420;17.842;2023-07-28T00:06:58;99904.75;;;25.62;40.16
14293;BME280;62290;59.420;17.842;2023-07-28T00:09:26;99903.91;;;25.62;40.06
14293;BME280;62290;59.420;17.842;2023-07-28T00:11:55;99913.00;;;25.61;39.98
14293;BME280;62290;59.420;17.842;2023-07-28T00:14:23;99915.88;;;25.59;40.04
14293;BME280;62290;59.420;17.842;2023-07-28T00:16:54;99908.63;;;25.60;40.11
14293;BME280;62290;59.420;17.842;2023-07-28T00:19:23;99906.09;;;25.58;39.80
14293;BME280;62290;59.420;17.842;2023-07-28T00:21:51;99911.66;;;25.57;40.02
14293;BME280;62290;59.420;17.842;2023-07-28T00:24:19;99917.06;;;25.57;40.08
14293;BME280;62290;59.420;17.842;2023-07-28T00:26:47;99907.25;;;25.56;40.07
14293;BME280;62290;59.420;17.842;2023-07-28T00:29:16;99903.06;;;25.53;39.93
14293;BME280;62290;59.420;17.842;2023-07-28T00:31:44;99912.16;;;25.52;40.07
14293;BME280;62290;59.420;17.842;2023-07-28T00:34:15;99906.91;;;25.51;39.97
14293;BME280;62290;59.420;17.842;2023-07-28T00:36:44;99910.78;;;25.48;40.10
14293;BME280;62290;59.420;17.842;2023-07-28T00:39:13;99912.66;;;25.48;39.81
14293;BME280;62290;59.420;17.842;2023-07-28T00:41:41;99908.28;;;25.47;39.74
14293;BME280;62290;59.420;17.842;2023-07-28T00:44:09;99902.31;;;25.43;39.80
14293;BME280;62290;59.420;17.842;2023-07-28T00:46:37;99909.41;;;25.44;39.86
14293;BME280;62290;59.420;17.842;2023-07-28T00:49:05;99914.97;;;25.43;39.67
14293;BME280;62290;59.420;17.842;2023-07-28T00:51:35;99914.28;;;25.41;40.08
14293;BME280;62290;59.420;17.842;2023-07-28T00:54:04;99909.06;;;25.39;39.72
14293;BME280;62290;59.420;17.842;2023-07-28T00:56:32;99906.53;;;25.38;40.12
14293;BME280;62290;59.420;17.842;2023-07-28T00:59:01;99909.41;;;25.36;40.18
14293;BME280;62290;59.420;17.842;2023-07-28T01:01:29;99902.47;;;25.34;40.26
14293;BME280;62290;59.420;17.842;2023-07-28T01:03:57;99888.66;;;25.29;40.37
14293;BME280;62290;59.420;17.842;2023-07-28T01:06:31;99898.09;;;25.33;40.29
14293;BME280;62290;59.420;17.842;2023-07-28T01:09:09;99902.81;;;25.31;40.05
14293;BME280;62290;59.420;17.842;2023-07-28T01:11:52;99897.72;;;25.28;39.91
14293;BME280;62290;59.420;17.842;2023-07-28T01:14:20;99891.66;;;25.26;40.33
14293;BME280;62290;59.420;17.842;2023-07-28T01:16:49;99891.81;;;25.24;40.21
14293;BME280;62290;59.420;17.842;2023-07-28T01:19:18;99881.19;;;25.23;40.48
14293;BME280;62290;59.420;17.842;2023-07-28T01:21:54;99890.28;;;25.22;40.26
14293;BME280;62290;59.420;17.842;2023-07-28T01:24:31;99888.63;;;25.21;40.41
14293;BME280;62290;59.420;17.842;2023-07-28T01:27:05;99886.25;;;25.17;40.36
14293;BME280;62290;59.420;17.842;2023-07-28T01:29:34;99881.00;;;25.16;40.58
14293;BME280;62290;59.420;17.842;2023-07-28T01:32:04;99884.53;;;25.16;40.36
14293;BME280;62290;59.420;17.842;2023-07-28T01:34:32;99880.19;;;25.15;40.22
14293;BME280;62290;59.420;17.842;2023-07-28T01:37:00;99872.41;;;25.12;40.39
14293;BME280;62290;59.420;17.842;2023-07-28T01:39:28;99868.69;;;25.13;40.77
14293;BME280;62290;59.420;17.842;2023-07-28T01:41:56;99862.47;;;25.13;40.61
14293;BME280;62290;59.420;17.842;2023-07-28T01:44:26;99870.72;;;25.11;40.74
14293;BME280;62290;59.420;17.842;2023-07-28T01:46:54;99862.81;;;25.10;40.74
14293;BME280;62290;59.420;17.842;2023-07-28T01:49:22;99872.72;;;25.09;40.67
14293;BME280;62290;59.420;17.842;2023-07-28T01:51:50;99868.34;;;25.08;40.66
14293;BME280;62290;59.420;17.842;2023-07-28T01:54:18;99861.28;;;25.07;40.55
14293;BME280;62290;59.420;17.842;2023-07-28T01:56:46;99872.19;;;25.06;41.08
14293;BME280;62290;59.420;17.842;2023-07-28T01:59:14;99867.66;;;25.06;40.56
14293;BME280;62290;59.420;17.842;2023-07-28T02:01:44;99873.06;;;25.06;40.71
14293;BME280;62290;59.420;17.842;2023-07-28T02:04:12;99873.22;;;25.05;40.80
14293;BME280;62290;59.420;17.842;2023-07-28T02:06:40;99873.38;;;25.03;40.64
14293;BME280;62290;59.420;17.842;2023-07-28T02:09:08;99869.00;;;25.02;40.66
14293;BME280;62290;59.420;17.842;2023-07-28T02:11:36;99869.16;;;25.01;40.77
14293;BME280;62290;59.420;17.842;2023-07-28T02:14:04;99873.69;;;25.00;40.82
14293;BME280;62290;59.420;17.842;2023-07-28T02:16:32;99868.66;;;24.97;41.13
14293;BME280;62290;59.420;17.842;2023-07-28T02:19:02;99880.97;;;25.00;41.03
14293;BME280;62290;59.420;17.842;2023-07-28T02:21:30;99870.31;;;24.98;41.14
14293;BME280;62290;59.420;17.842;2023-07-28T02:23:58;99865.13;;;24.97;40.96
14293;BME280;62290;59.420;17.842;2023-07-28T02:26:26;99865.25;;;24.95;40.99
14293;BME280;62290;59.420;17.842;2023-07-28T02:28:54;99860.03;;;24.94;40.90
14293;BME280;62290;59.420;17.842;2023-07-28T02:31:22;99867.28;;;24.93;41.04
14293;BME280;62290;59.420;17.842;2023-07-28T02:33:50;99865.09;;;24.89;41.15
14293;BME280;62290;59.420;17.842;2023-07-28T02:36:19;99871.16;;;24.91;41.15
14293;BME280;62290;59.420;17.842;2023-07-28T02:38:47;99868.63;;;24.89;41.15
14293;BME280;62290;59.420;17.842;2023-07-28T02:41:15;99868.63;;;24.89;41.44
14293;BME280;62290;59.420;17.842;2023-07-28T02:43:43;99867.59;;;24.90;41.33
14293;BME280;62290;59.420;17.842;2023-07-28T02:46:11;99868.63;;;24.89;41.47
14293;BME280;62290;59.420;17.842;2023-07-28T02:48:39;99867.78;;;24.89;41.48
14293;BME280;62290;59.420;17.842;2023-07-28T02:51:07;99867.78;;;24.89;41.30
14293;BME280;62290;59.420;17.842;2023-07-28T02:53:37;99864.41;;;24.87;41.27
14293;BME280;62290;59.420;17.842;2023-07-28T02:56:05;99867.09;;;24.87;41.34
14293;BME280;62290;59.420;17.842;2023-07-28T02:58:33;99864.41;;;24.87;41.50
14293;BME280;62290;59.420;17.842;2023-07-28T03:01:01;99876.84;;;24.88;41.09
14293;BME280;62290;59.420;17.842;2023-07-28T03:03:33;99872.50;;;24.87;41.64
14293;BME280;62290;59.420;17.842;2023-07-28T03:06:02;99877.03;;;24.86;41.20
14293;BME280;62290;59.420;17.842;2023-07-28T03:08:32;99872.63;;;24.85;41.55
14293;BME280;62290;59.420;17.842;2023-07-28T03:11:21;99879.06;;;24.84;41.35
14293;BME280;62290;59.420;17.842;2023-07-28T03:13:49;99871.97;;;24.83;41.36
14293;BME280;62290;59.420;17.842;2023-07-28T03:16:17;99871.78;;;24.85;41.61
14293;BME280;62290;59.420;17.842;2023-07-28T03:18:45;99866.38;;;24.85;41.49
14293;BME280;62290;59.420;17.842;2023-07-28T03:21:14;99865.56;;;24.84;41.59
14293;BME280;62290;59.420;17.842;2023-07-28T03:23:42;99866.56;;;24.83;41.89
14293;BME280;62290;59.420;17.842;2023-07-28T03:26:10;99869.25;;;24.83;41.56
14293;BME280;62290;59.420;17.842;2023-07-28T03:28:39;99866.56;;;24.83;41.87
14293;BME280;62290;59.420;17.842;2023-07-28T03:31:07;99864.88;;;24.82;41.63
14293;BME280;62290;59.420;17.842;2023-07-28T03:33:36;99862.03;;;24.84;41.85
14293;BME280;62290;59.420;17.842;2023-07-28T03:36:04;99868.94;;;24.86;41.97
14293;BME280;62290;59.420;17.842;2023-07-28T03:38:33;99859.34;;;24.84;42.03
14293;BME280;62290;59.420;17.842;2023-07-28T03:41:03;99869.97;;;24.93;41.72
14293;BME280;62290;59.420;17.842;2023-07-28T03:43:31;99871.34;;;24.97;42.04
14293;BME280;62290;59.420;17.842;2023-07-28T03:46:01;99866.31;;;25.02;41.81
14293;BME280;62290;59.420;17.842;2023-07-28T03:48:30;99858.72;;;25.06;41.61
14293;BME280;62290;59.420;17.842;2023-07-28T03:50:58;99865.16;;;25.13;41.38
14293;BME280;62290;59.420;17.842;2023-07-28T03:53:26;99864.00;;;25.15;41.48
14293;BME280;62290;59.420;17.842;2023-07-28T03:55:54;99861.47;;;25.22;41.56
14293;BME280;62290;59.420;17.842;2023-07-28T03:58:24;99863.66;;;25.27;41.56
14293;BME280;62290;59.420;17.842;2023-07-28T04:00:53;99870.13;;;25.34;41.51
14293;BME280;62290;59.420;17.842;2023-07-28T04:03:23;99862.38;;;25.39;41.15
14293;BME280;62290;59.420;17.842;2023-07-28T04:05:51;99863.72;;;25.43;41.01
14293;BME280;62290;59.420;17.842;2023-07-28T04:08:19;99855.16;;;25.47;41.06
14293;BME280;62290;59.420;17.842;2023-07-28T04:10:47;99856.50;;;25.51;40.88
14293;BME280;62290;59.420;17.842;2023-07-28T04:13:15;99855.00;;;25.57;41.00
14293;BME280;62290;59.420;17.842;2023-07-28T04:15:43;99853.66;;;25.61;41.23
14293;BME280;62290;59.420;17.842;2023-07-28T04:18:11;99857.03;;;25.63;41.24
14293;BME280;62290;59.420;17.842;2023-07-28T04:20:40;99842.84;;;25.53;40.79
14293;BME280;62290;59.420;17.842;2023-07-28T04:23:09;99856.34;;;25.61;40.79
14293;BME280;62290;59.420;17.842;2023-07-28T04:25:38;99858.03;;;25.62;41.12
14293;BME280;62290;59.420;17.842;2023-07-28T04:28:06;99855.50;;;25.60;41.15
14293;BME280;62290;59.420;17.842;2023-07-28T04:30:35;99860.75;;;25.62;41.06
14293;BME280;62290;59.420;17.842;2023-07-28T04:33:04;99855.16;;;25.63;41.27
14293;BME280;62290;59.420;17.842;2023-07-28T04:35:36;99854.84;;;25.66;40.85
14293;BME280;62290;59.420;17.842;2023-07-28T04:38:22;99854.31;;;25.71;40.94
14293;BME280;62290;59.420;17.842;2023-07-28T04:40:54;99847.59;;;25.75;40.91
14293;BME280;62290;59.420;17.842;2023-07-28T04:43:36;99847.09;;;25.80;41.25
14293;BME280;62290;59.420;17.842;2023-07-28T04:46:04;99856.56;;;25.84;40.89
14293;BME280;62290;59.420;17.842;2023-07-28T04:48:32;99855.19;;;25.88;41.05
14293;BME280;62290;59.420;17.842;2023-07-28T04:51:04;99850.31;;;25.91;40.74
14293;BME280;62290;59.420;17.842;2023-07-28T04:54:05;99854.84;;;25.99;40.59
14293;BME280;62290;59.420;17.842;2023-07-28T04:56:33;99857.03;;;26.03;40.61
14293;BME280;62290;59.420;17.842;2023-07-28T04:59:02;99846.91;;;26.05;40.67
14293;BME280;62290;59.420;17.842;2023-07-28T05:01:31;99850.13;;;26.09;40.71
14293;BME280;62290;59.420;17.842;2023-07-28T05:03:59;99852.63;;;26.10;40.43
14293;BME280;62290;59.420;17.842;2023-07-28T05:06:29;99848.94;;;26.11;40.69
14293;BME280;62290;59.420;17.842;2023-07-28T05:08:57;99847.97;;;26.12;40.49
14293;BME280;62290;59.420;17.842;2023-07-28T05:11:33;99833.28;;;26.15;40.73
14293;BME280;62290;59.420;17.842;2023-07-28T05:14:02;99833.75;;;26.18;40.34
14293;BME280;62290;59.420;17.842;2023-07-28T05:16:32;99839.81;;;26.20;40.31
14293;BME280;62290;59.420;17.842;2023-07-28T05:19:09;99839.81;;;26.20;40.20
14293;BME280;62290;59.420;17.842;2023-07-28T05:21:58;99841.50;;;26.21;40.53
14293;BME280;62290;59.420;17.842;2023-07-28T05:24:39;99832.56;;;26.21;40.33
14293;BME280;62290;59.420;17.842;2023-07-28T05:27:09;99837.97;;;26.21;40.34
14293;BME280;62290;59.420;17.842;2023-07-28T05:29:38;99837.31;;;26.19;40.86
14293;BME280;62290;59.420;17.842;2023-07-28T05:32:07;99845.41;;;26.19;40.60
14293;BME280;62290;59.420;17.842;2023-07-28T05:34:54;99832.91;;;26.18;40.50
14293;BME280;62290;59.420;17.842;2023-07-28T05:37:22;99835.59;;;26.18;40.40
14293;BME280;62290;59.420;17.842;2023-07-28T05:39:50;99833.59;;;26.20;40.87
14293;BME280;62290;59.420;17.842;2023-07-28T05:42:21;99835.09;;;26.22;40.43
14293;BME280;62290;59.420;17.842;2023-07-28T05:44:51;99835.25;;;26.21;40.79
14293;BME280;62290;59.420;17.842;2023-07-28T05:47:22;99835.25;;;26.21;40.71
14293;BME280;62290;59.420;17.842;2023-07-28T05:49:51;99835.44;;;26.19;40.74
14293;BME280;62290;59.420;17.842;2023-07-28T05:52:20;99836.44;;;26.18;40.65
14293;BME280;62290;59.420;17.842;2023-07-28T05:54:49;99831.22;;;26.17;40.62
14293;BME280;62290;59.420;17.842;2023-07-28T05:57:17;99845.75;;;26.16;40.63
14293;BME280;62290;59.420;17.842;2023-07-28T05:59:47;99835.28;;;26.13;40.70
14293;BME280;62290;59.420;17.842;2023-07-28T06:02:15;99838.97;;;26.12;40.79
14293;BME280;62290;59.420;17.842;2023-07-28T06:04:51;99837.59;;;26.08;40.60
14293;BME280;62290;59.420;17.842;2023-07-28T06:07:20;99840.66;;;26.05;40.84
14293;BME280;62290;59.420;17.842;2023-07-28T06:09:48;99837.78;;;26.06;40.32
14293;BME280;62290;59.420;17.842;2023-07-28T06:12:16;99838.47;;;26.08;40.74
14293;BME280;62290;59.420;17.842;2023-07-28T06:14:44;99839.97;;;26.11;40.48
14293;BME280;62290;59.420;17.842;2023-07-28T06:17:14;99825.31;;;26.13;40.57
14293;BME280;62290;59.420;17.842;2023-07-28T06:19:42;99829.72;;;26.14;40.10
14293;BME280;62290;59.420;17.842;2023-07-28T06:22:10;99834.09;;;26.15;40.07
14293;BME280;62290;59.420;17.842;2023-07-28T06:24:42;99841.19;;;26.16;40.01
14293;BME280;62290;59.420;17.842;2023-07-28T06:27:10;99834.78;;;26.17;40.17
14293;BME280;62290;59.420;17.842;2023-07-28T06:29:38;99834.09;;;26.15;39.84
14293;BME280;62290;59.420;17.842;2023-07-28T06:32:07;99828.69;;;26.15;39.93
14293;BME280;62290;59.420;17.842;2023-07-28T06:34:37;99830.72;;;26.13;40.14
14293;BME280;62290;59.420;17.842;2023-07-28T06:37:05;99756.50;;;25.69;40.21
14293;BME280;62290;59.420;17.842;2023-07-28T06:39:34;99833.06;;;26.08;40.29
14293;BME280;62290;59.420;17.842;2023-07-28T06:42:03;99835.94;;;26.07;39.97
14293;BME280;62290;59.420;17.842;2023-07-28T06:44:31;99834.25;;;26.06;39.90
14293;BME280;62290;59.420;17.842;2023-07-28T06:46:59;99826.34;;;26.04;40.29
14293;BME280;62290;59.420;17.842;2023-07-28T06:49:27;99832.72;;;26.03;39.83
14293;BME280;62290;59.420;17.842;2023-07-28T06:51:57;99831.41;;;25.99;39.92
14293;BME280;62290;59.420;17.842;2023-07-28T06:54:25;99831.41;;;25.99;39.90
14293;BME280;62290;59.420;17.842;2023-07-28T06:56:53;99828.84;;;25.98;39.71
14293;BME280;62290;59.420;17.842;2023-07-28T06:59:21;99833.59;;;25.96;39.71
14293;BME280;62290;59.420;17.842;2023-07-28T07:01:49;99825.63;;;25.94;39.88
14293;BME280;62290;59.420;17.842;2023-07-28T07:04:17;99839.13;;;25.94;39.69
14293;BME280;62290;59.420;17.842;2023-07-28T07:06:45;99830.56;;;25.91;39.75
14293;BME280;62290;59.420;17.842;2023-07-28T07:09:14;99832.41;;;25.90;39.92
14293;BME280;62290;59.420;17.842;2023-07-28T07:11:42;99821.78;;;25.89;39.87
14293;BME280;62290;59.420;17.842;2023-07-28T07:14:11;99819.25;;;25.87;39.69
14293;BME280;62290;59.420;17.842;2023-07-28T07:16:39;99823.78;;;25.87;40.03
14293;BME280;62290;59.420;17.842;2023-07-28T07:19:07;99822.97;;;25.86;39.68
14293;BME280;62290;59.420;17.842;2023-07-28T07:21:35;99789.75;;;25.69;39.78
14293;BME280;62290;59.420;17.842;2023-07-28T07:24:04;99813.69;;;25.81;39.88
14293;BME280;62290;59.420;17.842;2023-07-28T07:26:34;99808.97;;;25.83;40.17
14293;BME280;62290;59.420;17.842;2023-07-28T07:29:02;99804.56;;;25.82;40.09
14293;BME280;62290;59.420;17.842;2023-07-28T07:31:30;99806.44;;;25.81;40.09
14293;BME280;62290;59.420;17.842;2023-07-28T07:33:58;99805.59;;;25.81;40.23
14293;BME280;62290;59.420;17.842;2023-07-28T07:36:26;99804.91;;;25.78;39.73
14293;BME280;62290;59.420;17.842;2023-07-28T07:38:54;99815.69;;;25.78;39.95
14293;BME280;62290;59.420;17.842;2023-07-28T07:41:23;99806.59;;;25.80;39.55
14293;BME280;62290;59.420;17.842;2023-07-28T07:43:54;99811.00;;;25.81;39.52
14293;BME280;62290;59.420;17.842;2023-07-28T07:46:23;99809.16;;;25.81;40.07
14293;BME280;62290;59.420;17.842;2023-07-28T07:48:51;99813.38;;;25.84;39.92
14293;BME280;62290;59.420;17.842;2023-07-28T07:51:19;99815.53;;;25.88;39.99
14293;BME280;62290;59.420;17.842;2023-07-28T07:53:47;99809.81;;;25.91;39.36
14293;BME280;62290;59.420;17.842;2023-07-28T07:56:15;99802.72;;;25.90;39.11
14293;BME280;62290;59.420;17.842;2023-07-28T07:58:43;99806.25;;;25.91;39.49
14293;BME280;62290;59.420;17.842;2023-07-28T08:01:13;99812.31;;;25.93;39.74
14293;BME280;62290;59.420;17.842;2023-07-28T08:03:41;99816.88;;;25.92;39.36
14293;BME280;62290;59.420;17.842;2023-07-28T08:06:09;99816.03;;;25.92;39.51
14293;BME280;62290;59.420;17.842;2023-07-28T08:08:38;99820.94;;;25.88;39.71
14293;BME280;62290;59.420;17.842;2023-07-28T08:11:10;99822.59;;;25.89;39.61
14293;BME280;62290;59.420;17.842;2023-07-28T08:13:39;99829.19;;;25.87;39.10
14293;BME280;62290;59.420;17.842;2023-07-28T08:16:07;99831.22;;;25.85;39.13
14293;BME280;62290;59.420;17.842;2023-07-28T08:18:37;99836.63;;;25.85;39.13
14293;BME280;62290;59.420;17.842;2023-07-28T08:21:05;99838.66;;;25.83;38.84
14293;BME280;62290;59.420;17.842;2023-07-28T08:23:33;99834.25;;;25.82;39.09
14293;BME280;62290;59.420;17.842;2023-07-28T08:26:01;99830.75;;;25.81;39.05
14293;BME280;62290;59.420;17.842;2023-07-28T08:28:30;99833.59;;;25.80;39.26
14293;BME280;62290;59.420;17.842;2023-07-28T08:30:59;99829.38;;;25.77;38.96
14293;BME280;62290;59.420;17.842;2023-07-28T08:33:28;99844.56;;;25.78;39.25
14293;BME280;62290;59.420;17.842;2023-07-28T08:35:57;99835.44;;;25.79;39.05
14293;BME280;62290;59.420;17.842;2023-07-28T08:38:30;99834.78;;;25.77;39.09
14293;BME280;62290;59.420;17.842;2023-07-28T08:40:58;99833.78;;;25.78;39.64
14293;BME280;62290;59.420;17.842;2023-07-28T08:43:26;99831.88;;;25.78;39.41
14293;BME280;62290;59.420;17.842;2023-07-28T08:45:55;99824.81;;;25.69;39.88
14293;BME280;62290;59.420;17.842;2023-07-28T08:48:36;99833.44;;;25.81;39.42
14293;BME280;62290;59.420;17.842;2023-07-28T08:51:05;99837.81;;;25.82;39.99
14293;BME280;62290;59.420;17.842;2023-07-28T08:53:35;99836.97;;;25.82;40.29
14293;BME280;62290;59.420;17.842;2023-07-28T08:56:03;99835.09;;;25.82;40.38
14293;BME280;62290;59.420;17.842;2023-07-28T08:58:33;99837.81;;;25.82;40.25
14293;BME280;62290;59.420;17.842;2023-07-28T09:01:01;99836.81;;;25.83;40.69
14293;BME280;62290;59.420;17.842;2023-07-28T09:03:29;99831.56;;;25.82;40.57
14293;BME280;62290;59.420;17.842;2023-07-28T09:06:03;99829.56;;;25.84;40.44
14293;BME280;62290;59.420;17.842;2023-07-28T09:08:32;99830.03;;;25.87;40.21
14293;BME280;62290;59.420;17.842;2023-07-28T09:11:02;99815.03;;;25.85;40.06
14293;BME280;62290;59.420;17.842;2023-07-28T09:13:36;99826.66;;;25.93;40.50
14293;BME280;62290;59.420;17.842;2023-07-28T09:16:04;99828.34;;;25.94;40.06
14293;BME280;62290;59.420;17.842;2023-07-28T09:18:32;99833.59;;;25.96;40.33
14293;BME280;62290;59.420;17.842;2023-07-28T09:21:00;99821.78;;;25.97;40.41
14293;BME280;62290;59.420;17.842;2023-07-28T09:23:30;99812.84;;;25.96;40.32
14293;BME280;62290;59.420;17.842;2023-07-28T09:26:01;99806.41;;;25.97;39.74
14293;BME280;62290;59.420;17.842;2023-07-28T09:28:36;99801.53;;;26.01;40.05
14293;BME280;62290;59.420;17.842;2023-07-28T09:31:05;99803.03;;;26.03;39.85
14293;BME280;62290;59.420;17.842;2023-07-28T09:33:36;99810.78;;;26.06;39.52
14293;BME280;62290;59.420;17.842;2023-07-28T09:36:08;99806.06;;;26.08;39.33
14293;BME280;62290;59.420;17.842;2023-07-28T09:38:40;99811.78;;;26.05;39.20
14293;BME280;62290;59.420;17.842;2023-07-28T09:41:09;99804.03;;;26.02;39.94
14293;BME280;62290;59.420;17.842;2023-07-28T09:43:39;99812.13;;;26.02;39.75
14293;BME280;62290;59.420;17.842;2023-07-28T09:46:09;99799.81;;;26.08;40.14
14293;BME280;62290;59.420;17.842;2023-07-28T09:48:39;99804.22;;;26.17;39.52
14293;BME280;62290;59.420;17.842;2023-07-28T09:51:14;99810.44;;;26.25;40.13
14293;BME280;62290;59.420;17.842;2023-07-28T09:53:50;99815.00;;;26.33;40.08
14293;BME280;62290;59.420;17.842;2023-07-28T09:56:27;99811.44;;;26.32;40.40
14293;BME280;62290;59.420;17.842;2023-07-28T09:58:57;99804.00;;;26.34;40.50
14293;BME280;62290;59.420;17.842;2023-07-28T10:01:26;99827.63;;;26.49;40.46
14293;BME280;62290;59.420;17.842;2023-07-28T10:03:55;99838.75;;;26.54;40.88
14293;BME280;62290;59.420;17.842;2023-07-28T10:06:24;99829.25;;;26.58;41.33
14293;BME280;62290;59.420;17.842;2023-07-28T10:08:53;99837.03;;;26.61;42.34
14293;BME280;62290;59.420;17.842;2023-07-28T10:11:22;99819.28;;;26.58;42.73
14293;BME280;62290;59.420;17.842;2023-07-28T10:13:51;99833.63;;;26.67;42.98
14293;BME280;62290;59.420;17.842;2023-07-28T10:16:30;99828.03;;;26.68;44.69
14293;BME280;62290;59.420;17.842;2023-07-28T10:18:58;99837.13;;;26.75;44.25
14293;BME280;62290;59.420;17.842;2023-07-28T10:21:28;99830.41;;;26.79;44.49
14293;BME280;62290;59.420;17.842;2023-07-28T10:23:58;99829.00;;;26.83;45.44
14293;BME280;62290;59.420;17.842;2023-07-28T10:26:35;99817.00;;;26.86;46.02
14293;BME280;62290;59.420;17.842;2023-07-28T10:29:11;99824.09;;;26.87;45.66
14293;BME280;62290;59.420;17.842;2023-07-28T10:31:50;99824.75;;;26.89;46.34
14293;BME280;62290;59.420;17.842;2023-07-28T10:34:21;99823.44;;;26.85;46.09
14293;BME280;62290;59.420;17.842;2023-07-28T10:36:56;99832.88;;;26.89;45.94
14293;BME280;62290;59.420;17.842;2023-07-28T10:39:27;99834.91;;;26.87;46.03
14293;BME280;62290;59.420;17.842;2023-07-28T10:42:05;99788.91;;;26.56;45.01
14293;BME280;62290;59.420;17.842;2023-07-28T10:44:36;99838.16;;;26.82;45.00
14293;BME280;62290;59.420;17.842;2023-07-28T10:47:07;99834.41;;;26.83;44.81
14293;BME280;62290;59.420;17.842;2023-07-28T10:49:36;99840.00;;;26.82;44.59
14293;BME280;62290;59.420;17.842;2023-07-28T10:52:04;99841.03;;;26.81;44.52
14293;BME280;62290;59.420;17.842;2023-07-28T10:54:33;99839.34;;;26.80;44.42
14293;BME280;62290;59.420;17.842;2023-07-28T10:57:02;99839.50;;;26.78;44.39
14293;BME280;62290;59.420;17.842;2023-07-28T10:59:35;99848.47;;;26.79;43.04
14293;BME280;62290;59.420;17.842;2023-07-28T11:02:03;99844.06;;;26.78;42.79
14293;BME280;62290;59.420;17.842;2023-07-28T11:04:31;99856.78;;;26.77;43.24
14293;BME280;62290;59.420;17.842;2023-07-28T11:06:59;99846.78;;;26.78;43.69
14293;BME280;62290;59.420;17.842;2023-07-28T11:09:27;99846.78;;;26.78;43.33
14293;BME280;62290;59.420;17.842;2023-07-28T11:11:57;99855.72;;;26.78;43.27
14293;BME280;62290;59.420;17.842;2023-07-28T11:14:26;99851.38;;;26.77;43.59
14293;BME280;62290;59.420;17.842;2023-07-28T11:16:56;99856.03;;;26.75;43.28
14293;BME280;62290;59.420;17.842;2023-07-28T11:19:24;99858.94;;;26.74;43.79
14293;BME280;62290;59.420;17.842;2023-07-28T11:21:54;99846.41;;;26.73;43.69
14293;BME280;62290;59.420;17.842;2023-07-28T11:24:25;99844.56;;;26.73;43.45
14293;BME280;62290;59.420;17.842;2023-07-28T11:26:54;99841.22;;;26.71;43.52
14293;BME280;62290;59.420;17.842;2023-07-28T11:29:24;99844.91;;;26.70;43.48
14293;BME280;62290;59.420;17.842;2023-07-28T11:31:52;99851.16;;;26.71;43.32
14293;BME280;62290;59.420;17.842;2023-07-28T11:34:20;99851.16;;;26.71;43.24
14293;BME280;62290;59.420;17.842;2023-07-28T11:36:48;99853.03;;;26.70;43.11
14293;BME280;62290;59.420;17.842;2023-07-28T11:39:17;99843.75;;;26.65;42.85
14293;BME280;62290;59.420;17.842;2023-07-28T11:41:46;99845.66;;;26.56;42.55
14293;BME280;62290;59.420;17.842;2023-07-28T11:44:15;99860.66;;;26.67;42.51
14293;BME280;62290;59.420;17.842;2023-07-28T11:46:45;99858.97;;;26.66;41.95
14293;BME280;62290;59.420;17.842;2023-07-28T11:49:14;99832.66;;;26.52;41.57
14293;BME280;62290;59.420;17.842;2023-07-28T11:51:44;99849.69;;;26.60;41.07
14293;BME280;62290;59.420;17.842;2023-07-28T11:54:13;99848.34;;;26.56;41.43
14293;BME280;62290;59.420;17.842;2023-07-28T11:56:42;99849.38;;;26.55;41.27
14293;BME280;62290;59.420;17.842;2023-07-28T11:59:11;99852.75;;;26.49;41.38
14293;BME280;62290;59.420;17.842;2023-07-28T12:01:54;99853.78;;;26.48;40.90
14293;BME280;62290;59.420;17.842;2023-07-28T12:04:27;99871.34;;;26.44;41.32
14293;BME280;62290;59.420;17.842;2023-07-28T12:07:06;99869.50;;;26.45;40.87
14293;BME280;62290;59.420;17.842;2023-07-28T12:09:49;99871.53;;;26.43;41.45
14293;BME280;62290;59.420;17.842;2023-07-28T12:12:22;99856.34;;;26.33;41.16
14293;BME280;62290;59.420;17.842;2023-07-28T12:14:53;99861.41;;;26.36;40.78
14293;BME280;62290;59.420;17.842;2023-07-28T12:17:26;99866.13;;;26.34;40.69
14293;BME280;62290;59.420;17.842;2023-07-28T12:20:15;99873.56;;;26.32;40.56
14293;BME280;62290;59.420;17.842;2023-07-28T12:22:44;99880.81;;;26.32;40.69
14293;BME280;62290;59.420;17.842;2023-07-28T12:25:14;99879.31;;;26.29;40.51
14293;BME280;62290;59.420;17.842;2023-07-28T12:27:42;99874.59;;;26.23;40.18
14293;BME280;62290;59.420;17.842;2023-07-28T12:30:11;99868.34;;;26.23;40.36
14293;BME280;62290;59.420;17.842;2023-07-28T12:32:44;99883.88;;;26.29;40.19
14293;BME280;62290;59.420;17.842;2023-07-28T12:35:16;99878.47;;;26.29;40.16
14293;BME280;62290;59.420;17.842;2023-07-28T12:37:44;99873.91;;;26.29;40.58
14293;BME280;62290;59.420;17.842;2023-07-28T12:40:15;99854.19;;;26.13;40.07
14293;BME280;62290;59.420;17.842;2023-07-28T12:42:46;99865.81;;;26.29;40.59
14293;BME280;62290;59.420;17.842;2023-07-28T12:45:17;99869.50;;;26.28;40.28
14293;BME280;62290;59.420;17.842;2023-07-28T12:47:50;99868.50;;;26.29;40.53
14293;BME280;62290;59.420;17.842;2023-07-28T12:50:21;99866.66;;;26.30;40.54
14293;BME280;62290;59.420;17.842;2023-07-28T12:52:50;99873.91;;;26.29;40.50
14293;BME280;62290;59.420;17.842;2023-07-28T12:55:22;99862.44;;;26.27;40.26
14293;BME280;62290;59.420;17.842;2023-07-28T12:57:50;99872.22;;;26.28;40.46
14293;BME280;62290;59.420;17.842;2023-07-28T13:00:18;99868.50;;;26.29;40.52
14293;BME280;62290;59.420;17.842;2023-07-28T13:02:50;99869.34;;;26.30;40.51
14293;BME280;62290;59.420;17.842;2023-07-28T13:05:18;99868.31;;;26.31;40.82